Time;durP1;ratioP1;P1;durP2;ratioP2;P2;SDS_P1;SDS_P2;PMS_P1;PMS_P2;Temp;Humidity;BMP_temperature;BMP_pressure;BME280_temperature;BME280_humidity;BME280_pressure;Samples;Min_cycle;Max_cycle;Signal;HPM_P1;HPM_P2
2023/08/17 00:01:20;;;;;;;5.27;2.00;;;16.00;99.90;;;;;;5033269;28;20176;-84
2023/08/17 00:03:45;;;;;;;1.97;1.00;;;15.90;99.90;;;;;;5032429;28;20253;-84
2023/08/17 00:06:11;;;;;;;2.20;1.40;;;15.90;99.90;;;;;;5032292;28;20505;-84
2023/08/17 00:08:37;;;;;;;1.90;1.50;;;15.90;99.90;;;;;;5041756;28;20500;-84
2023/08/17 00:11:03;;;;;;;2.27;1.20;;;15.90;99.90;;;;;;5029186;28;20186;-84
2023/08/17 00:13:29;;;;;;;5.33;1.10;;;15.80;99.90;;;;;;5013156;28;20261;-84
2023/08/17 00:15:54;;;;;;;3.50;1.20;;;15.80;99.90;;;;;;5014240;28;20313;-85
2023/08/17 00:18:20;;;;;;;3.13;1.30;;;15.80;99.90;;;;;;5015481;28;20217;-85
2023/08/17 00:20:46;;;;;;;6.17;1.80;;;15.80;99.90;;;;;;5032147;28;20224;-84
2023/08/17 00:23:12;;;;;;;1.23;1.13;;;15.80;99.90;;;;;;5048740;28;20228;-84
2023/08/17 00:25:38;;;;;;;2.17;1.33;;;15.80;99.90;;;;;;5032773;28;20325;-84
2023/08/17 00:28:04;;;;;;;1.10;1.00;;;15.80;99.90;;;;;;5049840;28;20283;-84
2023/08/17 00:30:29;;;;;;;1.03;0.87;;;15.70;99.90;;;;;;5024146;28;20233;-86
2023/08/17 00:32:57;;;;;;;2.53;1.43;;;15.70;99.90;;;;;;5051931;28;20213;-84
2023/08/17 00:35:23;;;;;;;1.23;1.07;;;15.60;99.90;;;;;;5069613;28;20440;-84
2023/08/17 00:37:49;;;;;;;1.97;1.33;;;15.60;99.90;;;;;;5051655;28;20173;-85
2023/08/17 00:40:15;;;;;;;5.73;1.90;;;15.60;99.90;;;;;;5052676;28;20525;-84
2023/08/17 00:42:41;;;;;;;0.87;0.80;;;15.60;99.90;;;;;;5051513;28;20567;-84
2023/08/17 00:45:09;;;;;;;1.50;1.40;;;15.60;99.90;;;;;;5035069;28;20217;-85
2023/08/17 00:47:38;;;;;;;4.77;1.53;;;15.60;99.90;;;;;;5051933;28;20232;-86
2023/08/17 00:50:04;;;;;;;2.07;1.33;;;15.50;99.90;;;;;;5034779;28;20182;-86
2023/08/17 00:52:32;;;;;;;3.27;1.27;;;15.50;99.90;;;;;;5052706;28;20259;-85
2023/08/17 00:55:00;;;;;;;4.70;1.70;;;15.50;99.90;;;;;;5051634;28;20394;-84
2023/08/17 00:57:26;;;;;;;3.90;1.60;;;15.60;99.90;;;;;;5051599;28;20224;-85
2023/08/17 00:59:52;;;;;;;2.00;1.33;;;15.60;99.90;;;;;;5051283;28;20205;-84
2023/08/17 01:02:21;;;;;;;18.10;1.43;;;15.50;99.90;;;;;;5034918;28;20213;-84
2023/08/17 01:04:50;;;;;;;1.87;1.40;;;15.50;99.90;;;;;;5034631;28;20182;-84
2023/08/17 01:07:16;;;;;;;2.27;1.10;;;15.50;99.90;;;;;;5052121;28;20173;-84
2023/08/17 01:09:42;;;;;;;0.90;0.80;;;15.50;99.90;;;;;;5034578;28;20300;-86
2023/08/17 01:12:24;;;;;;;1.80;1.40;;;15.50;99.90;;;;;;5051489;28;20213;-84
2023/08/17 01:15:20;;;;;;;1.87;1.33;;;15.50;99.90;;;;;;5050091;28;20215;-86
2023/08/17 01:18:04;;;;;;;1.83;1.13;;;15.50;99.90;;;;;;5054473;28;20213;-84
2023/08/17 01:20:31;;;;;;;1.57;1.20;;;15.60;99.90;;;;;;5068661;28;20217;-85
2023/08/17 01:23:08;;;;;;;3.03;1.87;;;15.50;99.90;;;;;;5050938;28;20193;-84
2023/08/17 01:25:36;;;;;;;2.73;1.20;;;15.50;99.90;;;;;;5085508;28;20191;-84
2023/08/17 01:28:06;;;;;;;1.70;1.60;;;15.50;99.90;;;;;;5051121;28;20235;-84
2023/08/17 01:31:05;;;;;;;2.30;1.20;;;15.50;99.90;;;;;;5050387;28;20233;-84
2023/08/17 01:33:37;;;;;;;4.53;1.50;;;15.50;99.90;;;;;;5050155;28;20217;-85
2023/08/17 01:36:09;;;;;;;6.43;2.30;;;15.60;99.90;;;;;;5050654;28;20367;-86
2023/08/17 01:38:36;;;;;;;1.57;1.47;;;15.60;99.90;;;;;;5068329;28;20292;-84
2023/08/17 01:41:03;;;;;;;5.70;2.40;;;15.60;99.90;;;;;;5050314;28;20177;-86
2023/08/17 01:43:33;;;;;;;7.97;1.97;;;15.60;99.90;;;;;;5051180;28;20205;-83
2023/08/17 01:46:00;;;;;;;3.00;1.40;;;15.60;99.90;;;;;;5074202;28;20231;-86
2023/08/17 01:48:26;;;;;;;1.50;1.40;;;15.60;99.90;;;;;;5034009;28;20220;-85
2023/08/17 01:50:52;;;;;;;2.13;1.40;;;15.50;99.90;;;;;;5067056;28;20220;-84
2023/08/17 01:53:17;;;;;;;4.10;1.60;;;15.50;99.90;;;;;;5050084;28;20209;-84
2023/08/17 01:55:43;;;;;;;2.10;1.53;;;15.50;99.90;;;;;;5067652;28;20177;-84
2023/08/17 01:58:09;;;;;;;3.93;1.47;;;15.40;99.90;;;;;;5068421;28;20197;-84
2023/08/17 02:00:35;;;;;;;2.20;1.83;;;15.40;99.90;;;;;;5034738;28;20220;-83
2023/08/17 02:03:01;;;;;;;4.73;2.37;;;15.40;99.90;;;;;;5030569;28;20225;-86
2023/08/17 02:05:29;;;;;;;4.53;1.60;;;15.30;99.90;;;;;;5013883;28;20624;-84
2023/08/17 02:07:54;;;;;;;3.23;2.10;;;15.30;99.90;;;;;;5030224;28;20185;-84
2023/08/17 02:10:20;;;;;;;2.20;1.63;;;15.20;99.90;;;;;;5014276;28;20695;-86
2023/08/17 02:12:46;;;;;;;6.77;2.07;;;15.20;99.90;;;;;;5030321;28;20686;-83
2023/08/17 02:15:12;;;;;;;3.43;2.10;;;15.20;99.90;;;;;;5030018;28;20376;-83
2023/08/17 02:17:38;;;;;;;4.53;1.80;;;15.20;99.90;;;;;;5020772;28;20209;-83
2023/08/17 02:20:05;;;;;;;2.13;1.07;;;15.20;99.90;;;;;;5049623;28;20221;-86
2023/08/17 02:22:30;;;;;;;4.37;1.80;;;15.20;99.90;;;;;;5050461;28;20327;-85
2023/08/17 02:24:56;;;;;;;12.23;2.27;;;15.20;99.90;;;;;;5050142;28;20296;-83
2023/08/17 02:27:22;;;;;;;2.70;1.00;;;15.20;99.90;;;;;;5036444;28;20213;-83
2023/08/17 02:29:48;;;;;;;1.23;1.13;;;15.20;99.90;;;;;;5009913;28;20246;-86
2023/08/17 02:32:16;;;;;;;4.63;1.97;;;15.20;99.90;;;;;;5010123;28;20214;-84
2023/08/17 02:34:42;;;;;;;1.03;0.97;;;15.20;99.90;;;;;;5010590;28;20182;-83
2023/08/17 02:37:07;;;;;;;1.60;1.00;;;15.20;99.90;;;;;;5010128;28;20214;-83
2023/08/17 02:39:33;;;;;;;2.07;1.60;;;15.30;99.90;;;;;;5011016;28;20230;-84
2023/08/17 02:41:59;;;;;;;1.40;1.13;;;15.30;99.90;;;;;;5013412;28;20638;-83
2023/08/17 02:44:25;;;;;;;1.57;1.47;;;15.40;99.90;;;;;;5029716;28;20218;-83
2023/08/17 02:46:50;;;;;;;3.10;1.80;;;15.40;99.90;;;;;;5012260;28;20257;-83
2023/08/17 02:49:16;;;;;;;2.40;1.77;;;15.40;99.90;;;;;;5013827;28;20706;-83
2023/08/17 02:51:42;;;;;;;1.93;1.53;;;15.40;99.90;;;;;;5012828;28;20221;-85
2023/08/17 02:54:08;;;;;;;3.40;1.57;;;15.50;99.90;;;;;;5029716;28;20667;-84
2023/08/17 02:56:34;;;;;;;1.63;1.53;;;15.50;99.90;;;;;;5012541;28;20236;-83
2023/08/17 02:59:02;;;;;;;4.03;1.20;;;15.50;99.90;;;;;;5012934;28;20239;-84
2023/08/17 03:01:29;;;;;;;1.37;1.27;;;15.50;99.90;;;;;;5030257;28;20172;-84
2023/08/17 03:03:54;;;;;;;4.07;1.80;;;15.50;99.90;;;;;;5047210;28;20234;-84
2023/08/17 03:06:20;;;;;;;2.23;1.60;;;15.60;99.90;;;;;;5047123;28;20647;-84
2023/08/17 03:08:48;;;;;;;3.00;1.40;;;15.60;99.90;;;;;;5029577;28;20230;-81
2023/08/17 03:11:14;;;;;;;5.63;1.97;;;15.50;99.90;;;;;;5029504;28;20647;-82
2023/08/17 03:13:40;;;;;;;1.60;1.30;;;15.50;99.90;;;;;;5030129;28;20200;-83
2023/08/17 03:16:05;;;;;;;2.50;1.93;;;15.50;99.90;;;;;;5029384;28;20475;-82
2023/08/17 03:18:31;;;;;;;2.07;1.70;;;15.50;99.90;;;;;;5047141;28;20214;-82
2023/08/17 03:20:57;;;;;;;2.27;1.40;;;15.60;99.90;;;;;;5029409;28;20228;-84
2023/08/17 03:23:23;;;;;;;3.40;1.93;;;15.60;99.90;;;;;;5012900;28;20714;-82
2023/08/17 03:25:55;;;;;;;1.50;1.40;;;15.60;99.90;;;;;;5012850;28;20612;-83
2023/08/17 03:28:25;;;;;;;5.43;2.00;;;15.70;99.90;;;;;;5030380;28;20507;-83
2023/08/17 03:30:55;;;;;;;3.80;1.90;;;15.70;99.90;;;;;;5024440;28;20260;-82
2023/08/17 03:33:21;;;;;;;4.27;1.83;;;15.70;99.90;;;;;;5041298;28;20213;-83
2023/08/17 03:35:46;;;;;;;5.43;1.70;;;15.60;99.90;;;;;;5048575;28;20228;-83
2023/08/17 03:38:13;;;;;;;3.20;1.70;;;15.60;99.90;;;;;;5065752;28;20658;-84
2023/08/17 03:40:41;;;;;;;3.03;2.13;;;15.70;99.90;;;;;;5050011;28;20205;-85
2023/08/17 03:43:07;;;;;;;1.63;1.43;;;15.70;99.90;;;;;;5062629;28;20662;-84
2023/08/17 03:45:32;;;;;;;4.00;1.67;;;15.70;99.90;;;;;;5046803;28;20218;-84
2023/08/17 03:47:58;;;;;;;1.17;1.03;;;15.80;99.90;;;;;;5012577;28;20214;-83
2023/08/17 03:50:27;;;;;;;13.13;1.67;;;15.80;99.90;;;;;;5034342;28;20209;-85
2023/08/17 03:52:56;;;;;;;2.90;1.80;;;15.80;99.90;;;;;;5066855;28;20260;-82
2023/08/17 03:55:24;;;;;;;2.23;1.07;;;15.80;99.90;;;;;;5033133;28;20193;-85
2023/08/17 03:57:50;;;;;;;2.43;1.67;;;15.80;99.90;;;;;;5067389;28;20213;-83
2023/08/17 04:00:16;;;;;;;3.43;1.57;;;15.80;99.90;;;;;;5070494;28;20235;-84
2023/08/17 04:02:43;;;;;;;2.53;1.40;;;15.80;99.90;;;;;;5051936;28;20589;-86
2023/08/17 04:05:09;;;;;;;1.97;1.30;;;15.70;99.90;;;;;;5052383;28;20216;-84
2023/08/17 04:07:36;;;;;;;1.77;1.30;;;15.70;99.90;;;;;;5069551;28;20642;-84
2023/08/17 04:10:03;;;;;;;2.13;1.17;;;15.70;99.90;;;;;;5052257;28;20217;-86
2023/08/17 04:12:29;;;;;;;0.77;0.57;;;15.70;99.90;;;;;;5069977;28;20263;-83
2023/08/17 04:14:55;;;;;;;0.97;0.70;;;15.70;99.90;;;;;;5052009;28;20225;-84
2023/08/17 04:17:21;;;;;;;2.37;1.83;;;15.60;99.90;;;;;;5051538;28;20254;-85
2023/08/17 04:19:49;;;;;;;6.33;1.47;;;15.60;99.90;;;;;;5036166;28;20192;-84
2023/08/17 04:22:15;;;;;;;0.87;0.80;;;15.60;99.90;;;;;;5052643;28;20169;-84
2023/08/17 04:24:41;;;;;;;2.00;1.50;;;15.60;99.90;;;;;;5069818;28;20591;-83
2023/08/17 04:27:06;;;;;;;2.67;1.30;;;15.60;99.90;;;;;;5051871;28;20213;-83
2023/08/17 04:29:32;;;;;;;2.37;1.50;;;15.60;99.90;;;;;;5061358;28;20242;-83
2023/08/17 04:31:58;;;;;;;1.50;1.17;;;15.60;99.90;;;;;;5032287;28;20185;-83
2023/08/17 04:34:24;;;;;;;2.10;1.00;;;15.50;99.90;;;;;;5032570;28;20233;-82
2023/08/17 04:36:50;;;;;;;1.20;1.10;;;15.50;99.90;;;;;;5031894;28;20599;-82
2023/08/17 04:39:17;;;;;;;0.93;0.83;;;15.50;99.90;;;;;;5048350;28;20244;-82
2023/08/17 04:41:43;;;;;;;1.03;0.90;;;15.50;99.90;;;;;;5031502;28;20300;-82
2023/08/17 04:44:09;;;;;;;2.80;1.37;;;15.50;99.90;;;;;;5034928;28;20809;-84
2023/08/17 04:46:35;;;;;;;1.40;1.17;;;15.50;99.90;;;;;;5085576;28;20188;-82
2023/08/17 04:49:01;;;;;;;2.20;1.13;;;15.50;99.90;;;;;;5085094;28;20216;-83
2023/08/17 04:51:27;;;;;;;3.00;1.40;;;15.60;99.90;;;;;;5051617;28;20208;-85
2023/08/17 04:53:53;;;;;;;2.30;0.87;;;15.60;99.90;;;;;;5026937;28;20278;-83
2023/08/17 04:56:19;;;;;;;0.80;0.60;;;15.60;99.90;;;;;;5074616;28;20624;-83
2023/08/17 04:58:45;;;;;;;11.33;1.53;;;15.60;99.90;;;;;;5051428;28;20173;-81
2023/08/17 05:01:10;;;;;;;0.80;0.70;;;15.70;99.90;;;;;;5051896;28;20264;-82
2023/08/17 05:03:36;;;;;;;1.00;0.90;;;15.70;99.90;;;;;;5034959;28;20224;-83
2023/08/17 05:06:03;;;;;;;1.07;0.80;;;15.80;99.90;;;;;;5069648;28;20538;-83
2023/08/17 05:08:29;;;;;;;2.07;0.97;;;15.80;99.90;;;;;;5040641;28;20220;-85
2023/08/17 05:10:55;;;;;;;2.13;0.80;;;15.90;99.90;;;;;;5050705;28;20525;-83
2023/08/17 05:13:21;;;;;;;1.70;1.20;;;15.90;99.90;;;;;;5085481;28;20177;-84
2023/08/17 05:15:46;;;;;;;2.17;1.37;;;16.00;99.90;;;;;;5034708;28;20217;-84
2023/08/17 05:18:12;;;;;;;1.10;1.10;;;16.00;99.90;;;;;;5068979;28;20699;-83
2023/08/17 05:20:38;;;;;;;1.00;0.90;;;16.10;99.90;;;;;;5034207;28;20292;-84
2023/08/17 05:23:04;;;;;;;1.67;1.00;;;16.20;99.90;;;;;;5050995;28;20248;-82
2023/08/17 05:25:29;;;;;;;5.70;1.97;;;16.30;99.90;;;;;;5084966;28;20635;-82
2023/08/17 05:27:55;;;;;;;1.13;0.90;;;16.40;99.90;;;;;;5058197;28;20234;-84
2023/08/17 05:30:21;;;;;;;1.30;0.70;;;16.60;99.90;;;;;;5025499;28;20588;-83
2023/08/17 05:32:47;;;;;;;2.17;1.47;;;16.80;99.90;;;;;;5031001;28;20396;-83
2023/08/17 05:35:13;;;;;;;0.97;0.87;;;17.00;99.90;;;;;;5031205;28;20561;-84
2023/08/17 05:37:39;;;;;;;0.63;0.60;;;17.10;99.90;;;;;;5031586;28;20331;-83
2023/08/17 05:40:05;;;;;;;0.60;0.60;;;17.00;99.90;;;;;;5030948;28;20695;-84
2023/08/17 05:42:31;;;;;;;0.60;0.60;;;16.90;99.90;;;;;;5030681;28;20565;-83
2023/08/17 05:44:57;;;;;;;0.73;0.67;;;16.80;99.90;;;;;;5030658;28;20209;-84
2023/08/17 05:47:23;;;;;;;1.20;0.90;;;16.80;99.90;;;;;;5048380;28;20217;-83
2023/08/17 05:49:48;;;;;;;0.77;0.70;;;16.80;99.90;;;;;;5048591;28;20169;-84
2023/08/17 05:52:17;;;;;;;2.47;1.40;;;16.90;99.90;;;;;;5049022;28;20190;-84
2023/08/17 05:54:42;;;;;;;1.10;1.00;;;17.10;99.90;;;;;;5040009;28;20633;-85
2023/08/17 05:57:08;;;;;;;0.87;0.70;;;17.30;99.90;;;;;;5030743;28;20214;-84
2023/08/17 05:59:34;;;;;;;0.80;0.77;;;17.80;99.90;;;;;;5048448;28;20321;-84
2023/08/17 06:02:00;;;;;;;3.50;1.20;;;19.40;99.90;;;;;;5030469;28;20229;-82
2023/08/17 06:04:26;;;;;;;3.23;1.00;;;20.00;99.90;;;;;;5048962;28;20663;-85
2023/08/17 06:06:51;;;;;;;1.17;0.97;;;19.80;99.90;;;;;;5030139;28;20221;-82
2023/08/17 06:09:17;;;;;;;2.87;1.00;;;19.80;99.90;;;;;;5030230;28;20627;-82
2023/08/17 06:11:43;;;;;;;1.03;1.03;;;20.30;99.90;;;;;;5030236;28;20202;-84
2023/08/17 06:14:17;;;;;;;3.30;0.50;;;21.00;99.90;;;;;;5014232;28;20218;-86
2023/08/17 06:16:45;;;;;;;1.60;1.00;;;22.70;99.90;;;;;;5030528;28;20182;-86
2023/08/17 06:19:13;;;;;;;1.10;0.80;;;22.60;99.90;;;;;;5013453;28;20206;-83
2023/08/17 06:21:39;;;;;;;1.53;0.90;;;24.00;99.90;;;;;;5029771;28;20288;-84
2023/08/17 06:24:08;;;;;;;2.63;1.00;;;25.20;99.90;;;;;;5013415;28;20604;-85
2023/08/17 06:26:34;;;;;;;3.30;0.77;;;26.70;99.90;;;;;;5026979;28;20229;-85
2023/08/17 06:29:03;;;;;;;1.20;0.73;;;26.30;99.90;;;;;;5039328;28;20203;-86
2023/08/17 06:31:30;;;;;;;0.47;0.47;;;25.80;99.90;;;;;;5065778;28;20307;-83
2023/08/17 06:33:55;;;;;;;2.15;1.00;;;24.70;99.90;;;;;;5049782;28;20240;-83
2023/08/17 06:36:32;;;;;;;1.75;0.65;;;24.00;99.90;;;;;;5066375;28;20386;-84
2023/08/17 06:39:00;;;;;;;1.00;0.82;;;24.10;99.90;;;;;;5049700;28;20241;-82
2023/08/17 06:41:28;;;;;;;0.52;0.52;;;23.20;99.90;;;;;;5043663;28;20267;-85
2023/08/17 06:43:57;;;;;;;1.55;0.80;;;24.20;99.90;;;;;;5050874;28;20235;-85
2023/08/17 06:46:24;;;;;;;1.90;0.80;;;25.00;99.90;;;;;;5064983;28;20401;-83
2023/08/17 06:48:50;;;;;;;0.93;0.60;;;24.90;99.90;;;;;;5032458;28;20205;-84
2023/08/17 06:51:16;;;;;;;2.45;1.20;;;23.90;99.90;;;;;;5032392;28;20331;-83
2023/08/17 06:53:42;;;;;;;0.47;0.47;;;24.30;99.90;;;;;;5049343;28;20217;-84
2023/08/17 06:56:18;;;;;;;0.43;0.43;;;24.10;99.90;;;;;;5040799;28;20213;-84
2023/08/17 06:58:44;;;;;;;0.50;0.50;;;22.60;99.90;;;;;;5061824;28;20173;-84
2023/08/17 07:01:10;;;;;;;0.52;0.52;;;21.20;99.90;;;;;;5033322;28;20641;-83
2023/08/17 07:03:36;;;;;;;2.97;1.10;;;20.80;99.90;;;;;;5037789;28;20275;-84
2023/08/17 07:06:02;;;;;;;0.70;0.70;;;20.80;99.90;;;;;;5034076;28;20654;-84
2023/08/17 07:08:30;;;;;;;1.73;1.63;;;20.80;99.90;;;;;;5049226;28;20221;-85
2023/08/17 07:10:59;;;;;;;0.60;0.60;;;20.70;99.90;;;;;;5066184;28;20204;-84
2023/08/17 07:13:24;;;;;;;1.03;0.57;;;20.60;99.90;;;;;;5049736;28;20780;-85
2023/08/17 07:15:50;;;;;;;1.42;0.47;;;20.60;99.90;;;;;;5051855;28;20220;-83
2023/08/17 07:18:16;;;;;;;2.47;0.63;;;20.20;99.90;;;;;;5049064;28;20296;-84
2023/08/17 07:20:42;;;;;;;0.77;0.70;;;20.00;99.90;;;;;;5048867;28;20247;-83
2023/08/17 07:23:30;;;;;;;0.43;0.43;;;19.40;99.90;;;;;;5048933;28;20682;-84
2023/08/17 07:25:59;;;;;;;0.50;0.50;;;19.10;99.90;;;;;;5023961;28;20196;-85
2023/08/17 07:28:28;;;;;;;1.50;0.80;;;19.20;99.90;;;;;;5064543;28;20569;-86
2023/08/17 07:30:54;;;;;;;2.20;0.80;;;19.40;99.90;;;;;;5039008;28;20628;-83
2023/08/17 07:33:25;;;;;;;0.70;0.70;;;19.60;99.90;;;;;;5051172;28;20236;-84
2023/08/17 07:35:55;;;;;;;1.07;0.70;;;20.70;99.90;;;;;;5070813;28;20213;-83
2023/08/17 07:38:39;;;;;;;0.97;0.60;;;22.20;99.90;;;;;;5052703;28;20245;-85
2023/08/17 07:41:18;;;;;;;;;;;;;;;;;;;;;
2023/08/17 07:43:44;;;;;;;0.73;0.73;;;20.90;99.90;;;;;;5071059;28;20555;-85
2023/08/17 07:46:14;;;;;;;1.87;0.83;;;21.00;99.90;;;;;;5053515;28;20193;-84
2023/08/17 07:48:48;;;;;;;1.00;0.53;;;21.50;99.90;;;;;;5044391;28;20676;-83
2023/08/17 07:51:16;;;;;;;0.60;0.60;;;21.90;99.90;;;;;;5070415;28;20247;-82
2023/08/17 07:53:42;;;;;;;0.63;0.60;;;21.20;99.90;;;;;;5042948;28;20209;-83
2023/08/17 07:56:10;;;;;;;1.60;1.07;;;20.20;99.90;;;;;;5043526;28;20213;-82
2023/08/17 07:58:51;;;;;;;0.77;0.77;;;19.70;99.90;;;;;;5036509;28;20188;-86
2023/08/17 08:01:17;;;;;;;1.20;0.60;;;19.70;99.90;;;;;;5043173;28;20228;-86
2023/08/17 08:03:42;;;;;;;0.87;0.60;;;19.40;99.90;;;;;;5043581;28;20267;-82
2023/08/17 08:06:12;;;;;;;0.60;0.60;;;19.60;99.90;;;;;;5052299;28;20215;-84
2023/08/17 08:08:39;;;;;;;2.60;0.70;;;19.80;99.90;;;;;;5052066;28;20231;-83
2023/08/17 08:11:25;;;;;;;0.93;0.93;;;20.00;99.90;;;;;;5035566;28;20192;-84
2023/08/17 08:13:51;;;;;;;0.53;0.50;;;20.40;99.90;;;;;;5069327;28;20166;-83
2023/08/17 08:16:19;;;;;;;0.80;0.80;;;20.10;99.90;;;;;;5052755;28;20660;-83
2023/08/17 08:18:45;;;;;;;0.73;0.73;;;19.70;99.90;;;;;;5069968;28;20531;-83
2023/08/17 08:21:10;;;;;;;9.47;0.90;;;19.80;99.90;;;;;;5069594;28;20247;-85
2023/08/17 08:23:36;;;;;;;1.27;0.60;;;20.30;99.90;;;;;;5051871;28;20367;-85
2023/08/17 08:26:07;;;;;;;1.30;0.87;;;20.30;99.90;;;;;;5044153;28;20173;-85
2023/08/17 08:28:33;;;;;;;3.33;0.93;;;20.80;99.90;;;;;;5049482;28;20166;-83
2023/08/17 08:31:03;;;;;;;3.40;1.00;;;21.00;99.90;;;;;;5051397;28;20248;-85
2023/08/17 08:33:30;;;;;;;2.77;0.60;;;21.20;99.90;;;;;;5035092;28;20226;-82
2023/08/17 08:35:56;;;;;;;0.87;0.80;;;21.70;99.90;;;;;;5051428;28;20241;-83
2023/08/17 08:38:24;;;;;;;2.67;0.50;;;21.70;99.90;;;;;;5018394;28;20271;-84
2023/08/17 08:40:52;;;;;;;1.77;1.00;;;21.90;99.90;;;;;;5051487;28;20529;-83
2023/08/17 08:43:20;;;;;;;1.00;0.80;;;21.00;99.90;;;;;;5052961;28;20615;-84
2023/08/17 08:45:47;;;;;;;0.70;0.70;;;20.80;99.90;;;;;;5066430;28;20296;-85
2023/08/17 08:48:15;;;;;;;0.77;0.77;;;20.60;99.90;;;;;;5053389;28;20246;-84
2023/08/17 08:50:41;;;;;;;1.13;0.63;;;20.00;99.90;;;;;;5072996;28;20220;-82
2023/08/17 08:53:15;;;;;;;1.37;0.60;;;19.80;99.90;;;;;;5069280;28;20665;-83
2023/08/17 08:55:57;;;;;;;0.50;0.50;;;19.70;99.90;;;;;;5051599;28;20261;-83
2023/08/17 08:58:25;;;;;;;0.83;0.70;;;19.90;99.90;;;;;;5051499;28;20239;-81
2023/08/17 09:00:52;;;;;;;1.07;0.73;;;20.30;99.90;;;;;;5050953;28;20218;-82
2023/08/17 09:03:20;;;;;;;0.93;0.80;;;20.20;99.90;;;;;;5034617;28;20263;-81
2023/08/17 09:05:49;;;;;;;0.50;0.50;;;19.80;99.90;;;;;;5068198;28;20219;-83
2023/08/17 09:08:21;;;;;;;0.87;0.60;;;19.40;99.90;;;;;;5069120;28;20229;-82
2023/08/17 09:10:47;;;;;;;1.07;0.87;;;19.50;99.90;;;;;;5068332;28;20181;-82
2023/08/17 09:13:13;;;;;;;0.90;0.70;;;19.50;99.90;;;;;;5035024;28;20183;-82
2023/08/17 09:15:39;;;;;;;0.50;0.50;;;19.50;99.90;;;;;;5050828;28;20271;-82
2023/08/17 09:18:08;;;;;;;1.13;0.80;;;19.90;99.90;;;;;;5050416;28;20217;-82
2023/08/17 09:20:44;;;;;;;0.73;0.70;;;20.90;99.90;;;;;;5050551;28;20288;-83
2023/08/17 09:23:21;;;;;;;2.07;1.10;;;21.30;99.90;;;;;;5050502;28;20212;-83
2023/08/17 09:25:49;;;;;;;1.93;0.90;;;21.10;99.90;;;;;;5034107;28;20220;-82
2023/08/17 09:28:19;;;;;;;0.53;0.53;;;20.80;99.90;;;;;;5051299;28;20180;-83
2023/08/17 09:30:59;;;;;;;0.97;0.90;;;21.40;99.90;;;;;;5067832;28;20244;-83
2023/08/17 09:33:30;;;;;;;1.20;0.70;;;21.60;99.90;;;;;;5033581;28;20241;-83
2023/08/17 09:35:58;;;;;;;1.57;1.00;;;21.40;99.90;;;;;;5067844;28;20217;-83
2023/08/17 09:38:24;;;;;;;0.83;0.70;;;21.70;99.90;;;;;;5050387;28;20220;-82
2023/08/17 09:40:51;;;;;;;1.73;1.00;;;22.50;99.90;;;;;;5068038;28;20177;-83
2023/08/17 09:43:18;;;;;;;1.23;0.98;;;22.40;99.90;;;;;;5050887;28;20209;-84
2023/08/17 09:45:51;;;;;;;0.50;0.50;;;22.50;99.90;;;;;;5067855;28;20213;-83
2023/08/17 09:48:18;;;;;;;2.67;1.25;;;21.60;99.90;;;;;;5067765;28;20240;-82
2023/08/17 09:50:45;;;;;;;1.57;1.10;;;21.10;99.90;;;;;;5049843;28;20702;-82
2023/08/17 09:53:16;;;;;;;0.60;0.50;;;21.10;99.90;;;;;;5049796;28;20236;-83
2023/08/17 09:55:43;;;;;;;0.95;0.88;;;21.40;99.90;;;;;;5033592;28;20185;-83
2023/08/17 09:58:09;;;;;;;4.00;0.80;;;22.20;99.90;;;;;;5049891;28;20278;-84
2023/08/17 10:00:35;;;;;;;0.70;0.70;;;22.80;99.90;;;;;;5066544;28;20224;-81
2023/08/17 10:03:02;;;;;;;2.45;0.73;;;22.80;99.90;;;;;;5082652;28;20674;-83
2023/08/17 10:05:38;;;;;;;0.95;0.80;;;22.00;99.90;;;;;;5049384;28;20201;-84
2023/08/17 10:08:07;;;;;;;2.88;0.80;;;21.40;99.90;;;;;;5067218;28;20517;-81
2023/08/17 10:10:35;;;;;;;1.00;0.90;;;21.20;99.90;;;;;;5050523;28;20165;-84
2023/08/17 10:13:14;;;;;;;6.17;1.43;;;21.10;99.90;;;;;;5049839;28;20224;-82
2023/08/17 10:16:24;;;;;;;2.00;0.80;;;20.90;99.90;;;;;;5067594;28;20696;-82
2023/08/17 10:19:27;;;;;;;4.07;0.97;;;20.70;99.90;;;;;;5047453;28;20205;-83
2023/08/17 10:22:30;;;;;;;1.10;0.90;;;21.40;99.90;;;;;;5049513;28;20220;-83
2023/08/17 10:25:00;;;;;;;0.93;0.93;;;21.40;99.90;;;;;;5049601;28;20303;-83
2023/08/17 10:27:27;;;;;;;2.50;1.00;;;21.90;99.90;;;;;;5049805;28;20267;-83
2023/08/17 10:29:53;;;;;;;1.47;0.73;;;21.40;99.90;;;;;;5067121;28;20229;-84
2023/08/17 10:32:23;;;;;;;1.33;0.70;;;21.20;99.90;;;;;;5032872;28;20213;-83
2023/08/17 10:34:51;;;;;;;0.70;0.60;;;20.90;99.90;;;;;;5066893;28;20177;-84
2023/08/17 10:37:19;;;;;;;2.13;0.90;;;20.40;99.90;;;;;;5050291;28;20184;-82
2023/08/17 10:39:46;;;;;;;0.90;0.70;;;20.30;99.90;;;;;;5067227;28;20213;-83
2023/08/17 10:42:13;;;;;;;1.17;1.17;;;20.60;99.90;;;;;;5067311;28;20231;-84
2023/08/17 10:44:44;;;;;;;1.13;0.70;;;20.80;99.90;;;;;;5049265;28;20228;-83
2023/08/17 10:47:20;;;;;;;1.97;1.17;;;21.00;99.90;;;;;;5049515;28;20630;-82
2023/08/17 10:49:48;;;;;;;1.47;1.23;;;21.70;99.90;;;;;;5066838;28;20641;-81
2023/08/17 10:52:14;;;;;;;2.40;1.20;;;21.60;99.90;;;;;;5067775;28;20595;-82
2023/08/17 10:54:42;;;;;;;2.17;0.77;;;21.00;99.90;;;;;;5049451;28;20217;-82
2023/08/17 10:57:36;;;;;;;2.00;0.80;;;21.10;99.90;;;;;;5049005;28;20225;-84
2023/08/17 11:00:34;;;;;;;1.73;0.97;;;21.50;99.90;;;;;;5066874;28;20213;-85
2023/08/17 11:03:16;;;;;;;0.97;0.43;;;21.10;99.90;;;;;;5049028;28;20678;-85
2023/08/17 11:05:44;;;;;;;0.70;0.70;;;20.80;99.90;;;;;;5067097;28;20213;-80
2023/08/17 11:08:19;;;;;;;3.00;1.03;;;20.60;99.90;;;;;;5066160;28;20851;-81
2023/08/17 11:11:09;;;;;;;2.73;1.20;;;20.70;99.90;;;;;;5033562;28;20161;-83
2023/08/17 11:13:39;;;;;;;0.70;0.70;;;21.00;99.90;;;;;;5049987;28;20443;-83
2023/08/17 11:16:06;;;;;;;3.50;0.80;;;20.90;99.90;;;;;;5032641;28;20219;-82
2023/08/17 11:18:35;;;;;;;1.13;0.80;;;20.60;99.90;;;;;;5048889;28;20568;-83
2023/08/17 11:21:09;;;;;;;1.93;1.00;;;20.80;99.90;;;;;;5048781;28;20217;-83
2023/08/17 11:23:36;;;;;;;1.23;0.80;;;20.60;99.90;;;;;;5066371;28;20224;-81
2023/08/17 11:26:03;;;;;;;5.13;1.20;;;20.80;99.90;;;;;;5048780;28;20499;-83
2023/08/17 11:28:36;;;;;;;1.97;0.80;;;21.60;99.90;;;;;;5033194;28;20211;-82
2023/08/17 11:31:08;;;;;;;1.13;0.70;;;21.90;99.90;;;;;;5047501;28;20255;-82
2023/08/17 11:33:35;;;;;;;3.77;1.00;;;21.40;99.90;;;;;;5048837;28;20231;-82
2023/08/17 11:36:07;;;;;;;2.50;0.70;;;20.80;99.90;;;;;;5066362;28;20224;-82
2023/08/17 11:38:42;;;;;;;1.53;1.27;;;20.70;99.90;;;;;;5048990;28;20216;-82
2023/08/17 11:41:08;;;;;;;1.33;1.23;;;21.20;99.90;;;;;;5049383;28;20205;-82
2023/08/17 11:43:35;;;;;;;1.60;1.20;;;21.70;99.90;;;;;;5049555;28;20671;-83
2023/08/17 11:46:01;;;;;;;3.13;1.17;;;21.40;99.90;;;;;;5048447;28;20223;-83
2023/08/17 11:48:28;;;;;;;1.20;1.10;;;21.00;99.90;;;;;;5066462;28;20701;-82
2023/08/17 11:51:03;;;;;;;7.40;1.03;;;20.80;99.90;;;;;;5056815;28;20662;-83
2023/08/17 11:53:41;;;;;;;3.83;1.13;;;20.70;99.90;;;;;;5064813;28;20315;-83
2023/08/17 11:56:10;;;;;;;2.30;0.90;;;20.60;99.90;;;;;;5063570;28;20224;-82
2023/08/17 12:02:17;;;;;;;6.33;1.40;;;20.90;99.90;;;;;;5013687;28;20213;-82
2023/08/17 12:04:44;;;;;;;2.50;1.07;;;21.20;99.90;;;;;;5029682;28;20385;-82
2023/08/17 12:07:10;;;;;;;2.67;1.53;;;20.90;99.90;;;;;;5064653;28;20209;-82
2023/08/17 12:09:46;;;;;;;1.60;1.10;;;21.20;99.90;;;;;;5047238;28;20213;-82
2023/08/17 12:12:19;;;;;;;2.23;1.20;;;21.30;99.90;;;;;;5065181;28;20176;-82
2023/08/17 12:14:59;;;;;;;;;;;;;;;;;;;;;
2023/08/17 12:17:31;;;;;;;2.00;1.23;;;21.10;99.90;;;;;;5066048;28;20173;-83
2023/08/17 12:23:42;;;;;;;1.50;1.07;;;21.00;99.90;;;;;;5069756;28;20720;-83
2023/08/17 12:26:08;;;;;;;1.77;1.20;;;20.60;99.90;;;;;;5034005;28;20252;-82
2023/08/17 12:28:34;;;;;;;2.90;1.00;;;20.20;99.90;;;;;;5035034;28;20251;-81
2023/08/17 12:34:57;;;;;;;;;;;;;;;;;;;;;
2023/08/17 12:37:29;;;;;;;2.03;0.97;;;20.50;99.90;;;;;;5053307;28;20220;-83
2023/08/17 12:39:55;;;;;;;5.17;1.30;;;20.20;99.90;;;;;;5034306;28;20634;-83
2023/08/17 12:42:20;;;;;;;2.23;1.10;;;20.10;99.90;;;;;;5051322;28;20196;-83
2023/08/17 12:48:29;;;;;;;1.00;0.93;;;20.00;99.90;;;;;;5069328;28;20196;-82
2023/08/17 12:51:04;;;;;;;5.00;1.70;;;19.90;99.90;;;;;;5056438;28;20273;-82
2023/08/17 12:53:42;;;;;;;1.07;0.97;;;19.80;99.90;;;;;;5051888;28;20236;-81
2023/08/17 12:56:14;;;;;;;1.00;0.93;;;19.60;99.90;;;;;;5034371;28;20196;-82
2023/08/17 12:58:40;;;;;;;1.70;1.20;;;19.60;99.90;;;;;;5051303;28;20177;-82
2023/08/17 13:01:50;;;;;;;1.67;1.07;;;19.80;99.90;;;;;;5074170;28;20250;-84
2023/08/17 13:04:15;;;;;;;2.10;1.17;;;19.70;99.90;;;;;;5067738;28;20236;-81
2023/08/17 13:07:04;;;;;;;4.07;1.37;;;19.50;99.90;;;;;;5055315;28;20228;-82
2023/08/17 13:09:40;;;;;;;1.20;1.10;;;19.60;99.90;;;;;;5020464;28;20280;-84
2023/08/17 13:12:06;;;;;;;2.33;1.00;;;19.50;99.90;;;;;;5035648;28;20246;-81
2023/08/17 13:14:38;;;;;;;1.53;0.97;;;19.70;99.90;;;;;;5034764;28;20216;-81